createdAt,value
2023-05-16T00:00:16.893Z,7.90
2023-05-16T00:01:16.909Z,7.40
2023-05-16T00:02:16.880Z,8.50
2023-05-16T00:03:16.891Z,7.90
2023-05-16T00:04:16.883Z,8.10
2023-05-16T00:05:16.832Z,9.30
2023-05-16T00:06:16.825Z,9.20
2023-05-16T00:07:16.809Z,8.40
2023-05-16T00:08:16.790Z,7.80
2023-05-16T00:09:16.794Z,12.50
2023-05-16T00:10:16.773Z,7.60
2023-05-16T00:11:16.761Z,8.80
2023-05-16T00:12:16.750Z,8.10
2023-05-16T00:13:16.756Z,6.70
2023-05-16T00:14:16.731Z,6.80
2023-05-16T00:15:16.712Z,7.30
2023-05-16T00:16:16.781Z,6.20
2023-05-16T00:17:16.732Z,5.70
2023-05-16T00:18:16.766Z,6.20
2023-05-16T00:19:16.803Z,5.70
2023-05-16T00:20:16.661Z,4.70
2023-05-16T00:21:16.661Z,5.20
2023-05-16T00:22:16.630Z,5.00
2023-05-16T00:23:16.650Z,5.60
2023-05-16T00:24:16.612Z,5.30
2023-05-16T00:25:16.608Z,4.70
2023-05-16T00:26:16.591Z,5.10
2023-05-16T00:27:16.596Z,5.60
2023-05-16T00:28:16.587Z,5.90
2023-05-16T00:29:16.575Z,5.60
2023-05-16T00:30:16.575Z,5.60
2023-05-16T00:31:16.574Z,5.10
2023-05-16T00:32:16.610Z,4.00
2023-05-16T00:33:16.563Z,3.50
2023-05-16T00:34:16.542Z,4.20
2023-05-16T00:35:16.520Z,3.80
2023-05-16T00:36:16.484Z,4.80
2023-05-16T00:37:16.486Z,3.30
2023-05-16T00:38:16.456Z,3.40
2023-05-16T00:39:16.450Z,3.40
2023-05-16T00:40:16.435Z,3.20
2023-05-16T00:41:16.446Z,2.80
2023-05-16T00:42:16.423Z,3.90
2023-05-16T00:43:16.417Z,3.20
2023-05-16T00:44:16.407Z,3.10
2023-05-16T00:45:16.386Z,3.10
2023-05-16T00:46:16.440Z,3.40
2023-05-16T00:47:16.362Z,3.40
2023-05-16T00:48:16.422Z,2.50
2023-05-16T00:49:16.342Z,2.70
2023-05-16T00:50:16.328Z,2.30
2023-05-16T00:51:16.333Z,2.40
2023-05-16T00:52:16.321Z,2.90
2023-05-16T00:53:16.294Z,2.60
2023-05-16T00:54:16.285Z,2.60
2023-05-16T00:55:16.301Z,3.60
2023-05-16T00:56:16.272Z,2.00
2023-05-16T00:57:16.278Z,2.40
2023-05-16T00:58:16.244Z,2.30
2023-05-16T00:59:16.228Z,2.00
2023-05-16T01:00:16.233Z,3.00
2023-05-16T01:01:16.260Z,2.30
2023-05-16T01:02:16.233Z,2.50
2023-05-16T01:03:16.312Z,3.10
2023-05-16T01:04:16.169Z,4.00
2023-05-16T01:05:16.171Z,2.20
2023-05-16T01:06:16.209Z,2.30
2023-05-16T01:07:16.140Z,5.90
2023-05-16T01:08:16.117Z,1.70
2023-05-16T01:09:16.132Z,1.90
2023-05-16T01:10:16.123Z,1.50
2023-05-16T01:11:16.093Z,1.90
2023-05-16T01:12:16.083Z,2.10
2023-05-16T01:13:16.092Z,2.30
2023-05-16T01:14:16.071Z,1.50
2023-05-16T01:15:16.057Z,3.30
2023-05-16T01:16:16.081Z,3.20
2023-05-16T01:17:16.028Z,3.00
2023-05-16T01:18:16.114Z,3.40
2023-05-16T01:19:16.055Z,5.20
2023-05-16T01:20:16.049Z,3.90
2023-05-16T01:21:15.970Z,2.80
2023-05-16T01:22:15.971Z,3.40
2023-05-16T01:23:15.956Z,3.40
2023-05-16T01:24:15.958Z,4.50
2023-05-16T01:25:15.945Z,6.90
2023-05-16T01:26:15.931Z,4.90
2023-05-16T01:27:15.911Z,5.30
2023-05-16T01:28:15.907Z,5.50
2023-05-16T01:29:15.924Z,8.20
2023-05-16T01:30:15.901Z,7.50
2023-05-16T01:31:15.916Z,3.90
2023-05-16T01:32:15.858Z,3.60
2023-05-16T01:33:15.884Z,5.80
2023-05-16T01:34:15.858Z,7.20
2023-05-16T01:35:15.819Z,5.50
2023-05-16T01:36:15.826Z,9.00
2023-05-16T01:37:15.804Z,7.50
2023-05-16T01:38:15.879Z,7.50
2023-05-16T01:39:15.781Z,8.20
2023-05-16T01:40:15.773Z,6.20
2023-05-16T01:41:15.749Z,8.80
2023-05-16T01:42:15.842Z,9.50
2023-05-16T01:43:15.748Z,9.30
2023-05-16T01:44:15.725Z,11.20
2023-05-16T01:45:15.728Z,12.90
2023-05-16T01:46:15.738Z,7.40
2023-05-16T01:47:15.766Z,10.90
2023-05-16T01:48:15.733Z,11.20
2023-05-16T01:49:15.669Z,9.20
2023-05-16T01:50:15.663Z,9.10
2023-05-16T01:51:15.660Z,8.30
2023-05-16T01:52:15.653Z,10.20
2023-05-16T01:53:15.627Z,7.20
2023-05-16T01:54:15.617Z,8.40
2023-05-16T01:55:15.604Z,10.50
2023-05-16T01:56:15.599Z,7.90
2023-05-16T01:57:15.588Z,5.70
2023-05-16T01:58:15.564Z,10.10
2023-05-16T01:59:15.553Z,7.40
2023-05-16T02:00:15.547Z,6.30
2023-05-16T02:01:15.605Z,10.10
2023-05-16T02:02:15.523Z,10.30
2023-05-16T02:03:15.714Z,7.80
2023-05-16T02:04:15.749Z,11.30
2023-05-16T02:05:15.507Z,9.50
2023-05-16T02:06:15.507Z,10.30
2023-05-16T02:07:15.467Z,6.90
2023-05-16T02:08:15.466Z,9.20
2023-05-16T02:09:15.445Z,10.90
2023-05-16T02:10:15.465Z,7.20
2023-05-16T02:11:15.431Z,9.90
2023-05-16T02:12:15.428Z,8.60
2023-05-16T02:13:15.413Z,9.10
2023-05-16T02:14:15.436Z,9.10
2023-05-16T02:15:15.392Z,9.00
2023-05-16T02:16:15.378Z,8.70
2023-05-16T02:17:15.356Z,10.00
2023-05-16T02:18:15.344Z,9.40
2023-05-16T02:19:15.401Z,8.40
2023-05-16T02:20:15.344Z,9.60
2023-05-16T02:21:15.311Z,10.60
2023-05-16T02:22:15.316Z,8.40
2023-05-16T02:23:15.293Z,12.30
2023-05-16T02:24:15.281Z,9.80
2023-05-16T02:25:15.293Z,9.20
2023-05-16T02:26:15.261Z,10.50
2023-05-16T02:27:15.245Z,10.80
2023-05-16T02:28:15.298Z,12.10
2023-05-16T02:29:15.238Z,12.60
2023-05-16T02:30:15.226Z,12.80
2023-05-16T02:31:15.273Z,12.00
2023-05-16T02:32:15.196Z,11.20
2023-05-16T02:33:15.178Z,12.30
2023-05-16T02:34:15.178Z,9.00
2023-05-16T02:35:15.155Z,12.10
2023-05-16T02:36:15.159Z,11.10
2023-05-16T02:37:15.126Z,9.70
2023-05-16T02:38:15.143Z,11.80
2023-05-16T02:39:15.120Z,12.00
2023-05-16T02:40:15.113Z,12.00
2023-05-16T02:41:15.093Z,10.30
2023-05-16T02:42:15.081Z,11.80
2023-05-16T02:43:15.080Z,11.30
2023-05-16T02:44:15.062Z,11.20
2023-05-16T02:45:15.049Z,10.70
2023-05-16T02:46:15.058Z,11.20
2023-05-16T02:47:15.023Z,11.50
2023-05-16T02:48:15.036Z,15.60
2023-05-16T02:49:14.997Z,11.40
2023-05-16T02:50:14.992Z,11.80
2023-05-16T02:51:14.978Z,14.20
2023-05-16T02:52:14.982Z,10.10
2023-05-16T02:53:14.977Z,11.80
2023-05-16T02:54:14.949Z,9.90
2023-05-16T02:56:14.924Z,13.10
2023-05-16T02:57:14.923Z,12.70
2023-05-16T02:58:14.913Z,11.80
2023-05-16T02:59:14.888Z,12.90
2023-05-16T03:00:16.701Z,12.80
2023-05-16T03:01:14.912Z,10.80
2023-05-16T03:02:14.939Z,12.70
2023-05-16T03:03:14.947Z,9.50
2023-05-16T03:04:14.861Z,12.00
2023-05-16T03:05:14.822Z,11.10
2023-05-16T03:06:14.816Z,13.80
2023-05-16T03:07:14.827Z,12.20
2023-05-16T03:08:14.797Z,10.80
2023-05-16T03:09:14.791Z,12.90
2023-05-16T03:10:14.787Z,12.10
2023-05-16T03:11:14.762Z,12.30
2023-05-16T03:12:14.761Z,11.50
2023-05-16T03:13:14.732Z,11.90
2023-05-16T03:14:14.726Z,14.40
2023-05-16T03:15:14.714Z,11.30
2023-05-16T03:16:14.800Z,13.80
2023-05-16T03:17:14.702Z,14.00
2023-05-16T03:18:14.684Z,15.60
2023-05-16T03:19:14.727Z,15.90
2023-05-16T03:20:14.662Z,12.00
2023-05-16T03:21:14.657Z,10.00
2023-05-16T03:22:14.648Z,13.10
2023-05-16T03:23:14.615Z,12.80
2023-05-16T03:24:14.664Z,14.30
2023-05-16T03:25:14.619Z,12.90
2023-05-16T03:26:14.615Z,16.10
2023-05-16T03:27:14.595Z,15.30
2023-05-16T03:28:15.537Z,14.00
2023-05-16T03:29:14.558Z,13.60
2023-05-16T03:30:14.564Z,13.00
2023-05-16T03:31:14.665Z,16.00
2023-05-16T03:32:14.529Z,12.90
2023-05-16T03:33:14.525Z,12.50
2023-05-16T03:34:14.521Z,11.70
2023-05-16T03:35:14.502Z,16.60
2023-05-16T03:36:14.481Z,15.30
2023-05-16T03:37:14.472Z,15.00
2023-05-16T03:38:14.484Z,15.10
2023-05-16T03:39:14.465Z,16.10
2023-05-16T03:40:14.453Z,17.20
2023-05-16T03:41:14.426Z,9.70
2023-05-16T03:42:14.418Z,16.80
2023-05-16T03:43:14.406Z,15.40
2023-05-16T03:44:14.442Z,11.40
2023-05-16T03:45:14.401Z,16.20
2023-05-16T03:46:14.425Z,15.20
2023-05-16T03:47:14.366Z,11.70
2023-05-16T03:48:14.398Z,15.20
2023-05-16T03:49:14.348Z,16.90
2023-05-16T03:50:14.342Z,11.90
2023-05-16T03:51:14.317Z,11.90
2023-05-16T03:52:14.316Z,20.40
2023-05-16T03:53:14.358Z,15.40
2023-05-16T03:54:14.298Z,11.80
2023-05-16T03:55:14.450Z,14.40
2023-05-16T03:56:14.275Z,13.50
2023-05-16T03:57:14.294Z,16.90
2023-05-16T03:58:14.257Z,11.80
2023-05-16T03:59:14.231Z,15.70
2023-05-16T04:00:14.256Z,15.10
2023-05-16T04:01:14.209Z,12.90
2023-05-16T04:02:14.250Z,14.00
2023-05-16T04:03:14.247Z,17.10
2023-05-16T04:04:14.188Z,11.00
2023-05-16T04:05:14.268Z,13.30
2023-05-16T04:06:14.222Z,10.90
2023-05-16T04:07:14.157Z,15.80
2023-05-16T04:08:14.160Z,15.70
2023-05-16T04:09:14.121Z,12.80
2023-05-16T04:10:14.108Z,14.00
2023-05-16T04:11:14.106Z,10.60
2023-05-16T04:12:14.099Z,17.10
2023-05-16T04:13:14.177Z,14.40
2023-05-16T04:14:14.082Z,15.70
2023-05-16T04:15:14.047Z,15.70
2023-05-16T04:16:14.084Z,10.70
2023-05-16T04:17:14.119Z,14.10
2023-05-16T04:18:14.066Z,13.90
2023-05-16T04:19:14.086Z,15.20
2023-05-16T04:20:14.002Z,16.00
2023-05-16T04:21:14.000Z,17.30
2023-05-16T04:22:13.991Z,14.00
2023-05-16T04:23:13.975Z,14.20
2023-05-16T04:24:13.957Z,18.80
2023-05-16T04:25:13.946Z,17.10
2023-05-16T04:26:13.953Z,12.10
2023-05-16T04:27:13.921Z,14.40
2023-05-16T04:28:13.907Z,14.80
2023-05-16T04:29:13.903Z,13.50
2023-05-16T04:30:13.894Z,17.40
2023-05-16T04:31:13.941Z,16.00
2023-05-16T04:32:13.867Z,12.90
2023-05-16T04:33:13.921Z,15.80
2023-05-16T04:34:13.860Z,14.20
2023-05-16T04:35:13.843Z,14.60
2023-05-16T04:36:13.837Z,15.30
2023-05-16T04:37:13.813Z,12.90
2023-05-16T04:38:13.811Z,13.90
2023-05-16T04:39:13.793Z,9.10
2023-05-16T04:40:13.792Z,13.20
2023-05-16T04:41:13.762Z,13.50
2023-05-16T04:42:13.775Z,14.90
2023-05-16T04:43:13.762Z,11.00
2023-05-16T04:44:13.755Z,12.40
2023-05-16T04:45:13.736Z,15.00
2023-05-16T04:46:13.772Z,16.20
2023-05-16T04:47:13.710Z,16.00
2023-05-16T04:48:13.701Z,15.70
2023-05-16T04:49:13.691Z,14.40
2023-05-16T04:50:13.691Z,15.10
2023-05-16T04:51:13.672Z,11.90
2023-05-16T04:52:13.665Z,12.60
2023-05-16T04:53:13.637Z,14.50
2023-05-16T04:54:13.652Z,16.90
2023-05-16T04:55:13.616Z,11.40
2023-05-16T04:56:13.627Z,15.30
2023-05-16T04:57:13.605Z,9.00
2023-05-16T04:58:13.584Z,14.50
2023-05-16T04:59:13.586Z,15.10
2023-05-16T05:00:13.584Z,16.90
2023-05-16T05:01:13.664Z,14.50
2023-05-16T05:02:13.579Z,16.70
2023-05-16T05:03:13.593Z,17.30
2023-05-16T05:04:13.538Z,11.50
2023-05-16T05:05:13.586Z,15.50
2023-05-16T05:06:13.497Z,18.60
2023-05-16T05:07:13.486Z,15.70
2023-05-16T05:08:13.502Z,12.80
2023-05-16T05:09:13.462Z,17.30
2023-05-16T05:10:13.460Z,13.40
2023-05-16T05:11:13.458Z,11.90
2023-05-16T05:12:13.459Z,13.20
2023-05-16T05:13:13.450Z,17.50
2023-05-16T05:14:13.409Z,15.40
2023-05-16T05:15:13.401Z,13.30
2023-05-16T05:16:13.387Z,10.40
2023-05-16T05:17:13.448Z,12.50
2023-05-16T05:18:13.484Z,14.50
2023-05-16T05:19:13.391Z,13.50
2023-05-16T05:20:13.350Z,19.90
2023-05-16T05:21:13.359Z,15.70
2023-05-16T05:22:13.336Z,10.00
2023-05-16T05:23:13.316Z,12.30
2023-05-16T05:24:13.320Z,13.80
2023-05-16T05:25:13.297Z,12.30
2023-05-16T05:26:13.277Z,13.00
2023-05-16T05:27:13.288Z,13.20
2023-05-16T05:28:13.271Z,12.60
2023-05-16T05:29:13.241Z,12.30
2023-05-16T05:30:13.233Z,13.60
2023-05-16T05:31:13.286Z,10.70
2023-05-16T05:32:13.290Z,12.60
2023-05-16T05:33:13.225Z,11.10
2023-05-16T05:34:13.190Z,10.60
2023-05-16T05:35:13.185Z,10.60
2023-05-16T05:36:13.175Z,9.70
2023-05-16T05:37:13.148Z,15.30
2023-05-16T05:38:13.155Z,9.10
2023-05-16T05:39:13.124Z,11.40
2023-05-16T05:40:13.120Z,11.70
2023-05-16T05:41:13.119Z,10.20
2023-05-16T05:42:13.095Z,11.70
2023-05-16T05:43:13.090Z,12.30
2023-05-16T05:44:13.082Z,11.50
2023-05-16T05:45:13.074Z,13.50
2023-05-16T05:46:13.101Z,12.10
2023-05-16T05:47:13.045Z,13.60
2023-05-16T05:48:13.084Z,11.00
2023-05-16T05:49:13.029Z,11.30
2023-05-16T05:50:13.031Z,13.20
2023-05-16T05:51:12.999Z,10.70
2023-05-16T05:52:13.002Z,10.60
2023-05-16T05:53:12.967Z,12.90
2023-05-16T05:54:12.969Z,8.40
2023-05-16T05:55:12.962Z,13.40
2023-05-16T05:56:12.947Z,8.50
2023-05-16T05:57:12.946Z,10.90
2023-05-16T05:58:12.937Z,10.40
2023-05-16T05:59:12.908Z,10.10
2023-05-16T06:00:12.911Z,12.80
2023-05-16T06:01:12.899Z,9.70
2023-05-16T06:02:12.899Z,10.20
2023-05-16T06:03:12.895Z,14.40
2023-05-16T06:04:12.860Z,11.60
2023-05-16T06:05:12.896Z,12.10
2023-05-16T06:06:12.828Z,12.80
2023-05-16T06:07:12.819Z,10.00
2023-05-16T06:08:12.813Z,12.30
2023-05-16T06:09:12.835Z,12.40
2023-05-16T06:10:12.800Z,11.70
2023-05-16T06:11:12.781Z,10.20
2023-05-16T06:12:12.781Z,15.10
2023-05-16T06:13:12.775Z,9.10
2023-05-16T06:14:12.763Z,9.90
2023-05-16T06:15:12.735Z,11.00
2023-05-16T06:16:12.724Z,9.70
2023-05-16T06:17:12.785Z,9.60
2023-05-16T06:18:12.722Z,10.70
2023-05-16T06:19:12.764Z,9.90
2023-05-16T06:20:12.684Z,11.10
2023-05-16T06:21:12.664Z,10.30
2023-05-16T06:22:12.659Z,12.80
2023-05-16T06:23:12.648Z,15.20
2023-05-16T06:24:12.660Z,10.10
2023-05-16T06:25:12.637Z,14.80
2023-05-16T06:26:12.615Z,10.50
2023-05-16T06:27:12.600Z,9.90
2023-05-16T06:28:12.604Z,14.20
2023-05-16T06:29:12.593Z,12.00
2023-05-16T06:30:12.571Z,11.50
2023-05-16T06:31:12.624Z,10.60
2023-05-16T06:32:13.480Z,9.80
2023-05-16T06:33:12.551Z,10.20
2023-05-16T06:34:12.529Z,8.60
2023-05-16T06:35:12.519Z,11.50
2023-05-16T06:36:12.512Z,10.00
2023-05-16T06:37:12.489Z,10.00
2023-05-16T06:38:12.506Z,8.90
2023-05-16T06:39:12.485Z,9.80
2023-05-16T06:40:12.468Z,10.20
2023-05-16T06:41:12.480Z,9.70
2023-05-16T06:42:12.449Z,10.50
2023-05-16T06:43:12.442Z,10.60
2023-05-16T06:44:12.428Z,11.90
2023-05-16T06:45:12.398Z,10.50
2023-05-16T06:46:12.429Z,11.40
2023-05-16T06:47:12.394Z,9.80
2023-05-16T06:48:12.429Z,8.30
2023-05-16T06:49:12.361Z,9.60
2023-05-16T06:50:12.360Z,10.00
2023-05-16T06:51:12.334Z,8.70
2023-05-16T06:52:12.342Z,6.20
2023-05-16T06:53:12.317Z,12.30
2023-05-16T06:54:12.310Z,8.10
2023-05-16T06:55:12.293Z,9.40
2023-05-16T06:56:12.290Z,10.50
2023-05-16T06:57:12.294Z,12.40
2023-05-16T06:58:12.258Z,9.90
2023-05-16T06:59:12.251Z,8.80
2023-05-16T07:00:12.246Z,7.50
2023-05-16T07:01:12.336Z,7.70
2023-05-16T07:02:12.233Z,9.40
2023-05-16T07:03:12.286Z,9.70
2023-05-16T07:04:12.294Z,10.60
2023-05-16T07:05:12.183Z,8.60
2023-05-16T07:06:12.185Z,14.10
2023-05-16T07:07:12.154Z,10.30
2023-05-16T07:08:12.159Z,9.60
2023-05-16T07:09:12.141Z,9.60
2023-05-16T07:10:12.175Z,10.50
2023-05-16T07:11:12.131Z,8.40
2023-05-16T07:12:12.104Z,8.40
2023-05-16T07:13:12.109Z,9.60
2023-05-16T07:14:12.087Z,10.10
2023-05-16T07:15:12.085Z,7.20
2023-05-16T07:16:12.120Z,9.80
2023-05-16T07:17:12.088Z,8.40
2023-05-16T07:18:12.095Z,5.70
2023-05-16T07:19:12.073Z,10.60
2023-05-16T07:20:12.023Z,13.10
2023-05-16T07:21:12.008Z,9.90
2023-05-16T07:22:11.998Z,5.40
2023-05-16T07:23:12.002Z,6.70
2023-05-16T07:24:11.971Z,9.40
2023-05-16T07:25:11.988Z,9.20
2023-05-16T07:26:11.952Z,8.10
2023-05-16T07:27:11.946Z,7.70
2023-05-16T07:28:11.930Z,9.50
2023-05-16T07:29:11.935Z,9.60
2023-05-16T07:30:11.993Z,6.70
2023-05-16T07:31:11.915Z,5.80
2023-05-16T07:32:11.922Z,6.80
2023-05-16T07:33:11.915Z,7.90
2023-05-16T07:34:11.873Z,8.00
2023-05-16T07:35:11.854Z,9.00
2023-05-16T07:36:16.686Z,7.80
2023-05-16T07:37:11.836Z,6.80
2023-05-16T07:38:11.859Z,7.10
2023-05-16T07:39:11.818Z,8.20
2023-05-16T07:40:11.799Z,5.70
2023-05-16T07:41:11.789Z,10.00
2023-05-16T07:42:11.774Z,7.80
2023-05-16T07:43:11.771Z,10.40
2023-05-16T07:44:11.756Z,7.80
2023-05-16T07:45:11.739Z,7.10
2023-05-16T07:46:11.818Z,8.10
2023-05-16T07:47:11.718Z,8.10
2023-05-16T07:48:11.739Z,8.90
2023-05-16T07:49:11.696Z,9.40
2023-05-16T07:50:11.688Z,8.20
2023-05-16T07:51:11.728Z,7.10
2023-05-16T07:52:11.762Z,12.30
2023-05-16T07:53:11.854Z,8.10
2023-05-16T07:54:11.640Z,7.80
2023-05-16T07:55:11.633Z,7.10
2023-05-16T07:56:11.609Z,8.40
2023-05-16T07:57:11.618Z,6.10
2023-05-16T07:58:11.600Z,6.80
2023-05-16T07:59:11.602Z,9.40
2023-05-16T08:00:11.587Z,9.40
2023-05-16T08:01:11.561Z,7.10
2023-05-16T08:02:11.620Z,9.10
2023-05-16T08:03:11.636Z,8.20
2023-05-16T08:04:11.528Z,7.40
2023-05-16T08:05:11.541Z,8.50
2023-05-16T08:06:11.563Z,9.00
2023-05-16T08:07:11.501Z,7.20
2023-05-16T08:08:11.481Z,6.20
2023-05-16T08:09:11.476Z,6.10
2023-05-16T08:10:13.794Z,5.30
2023-05-16T08:11:11.465Z,7.20
2023-05-16T08:12:11.443Z,6.20
2023-05-16T08:13:11.427Z,7.80
2023-05-16T08:14:11.412Z,6.40
2023-05-16T08:15:11.423Z,7.20
2023-05-16T08:16:11.424Z,7.10
2023-05-16T08:17:11.390Z,6.40
2023-05-16T08:18:11.424Z,4.70
2023-05-16T08:19:11.421Z,6.60
2023-05-16T08:20:11.367Z,4.10
2023-05-16T08:21:11.353Z,5.40
2023-05-16T08:22:11.327Z,6.60
2023-05-16T08:23:11.323Z,5.10
2023-05-16T08:24:11.366Z,6.60
2023-05-16T08:25:11.301Z,5.40
2023-05-16T08:26:11.286Z,3.10
2023-05-16T08:27:11.274Z,6.50
2023-05-16T08:28:11.271Z,4.00
2023-05-16T08:29:11.250Z,6.60
2023-05-16T08:30:11.262Z,6.30
2023-05-16T08:31:11.282Z,6.40
2023-05-16T08:32:11.222Z,5.70
2023-05-16T08:33:11.234Z,9.10
2023-05-16T08:34:11.206Z,5.30
2023-05-16T08:35:11.219Z,5.10
2023-05-16T08:36:11.174Z,7.20
2023-05-16T08:37:11.159Z,5.70
2023-05-16T08:38:11.148Z,4.80
2023-05-16T08:39:11.156Z,3.10
2023-05-16T08:40:11.156Z,4.80
2023-05-16T08:41:11.120Z,3.60
2023-05-16T08:42:11.110Z,4.80
2023-05-16T08:43:11.106Z,6.10
2023-05-16T08:44:11.108Z,4.40
2023-05-16T08:45:11.080Z,5.80
2023-05-16T08:46:11.090Z,5.80
2023-05-16T08:47:11.103Z,5.20
2023-05-16T08:48:11.076Z,3.90
2023-05-16T08:49:11.115Z,6.30
2023-05-16T08:50:11.019Z,5.00
2023-05-16T08:51:11.006Z,3.80
2023-05-16T08:52:10.998Z,5.70
2023-05-16T08:53:10.996Z,5.90
2023-05-16T08:54:10.990Z,7.40
2023-05-16T08:55:11.867Z,4.70
2023-05-16T08:56:10.958Z,6.00
2023-05-16T08:57:10.947Z,3.70
2023-05-16T08:58:10.941Z,4.40
2023-05-16T08:59:10.919Z,5.50
2023-05-16T09:00:10.914Z,3.20
2023-05-16T09:01:10.935Z,5.50
2023-05-16T09:02:10.899Z,3.90
2023-05-16T09:03:10.938Z,6.00
2023-05-16T09:04:10.924Z,5.20
2023-05-16T09:05:10.864Z,5.40
2023-05-16T09:06:10.847Z,6.00
2023-05-16T09:07:10.831Z,4.70
2023-05-16T09:08:10.833Z,3.10
2023-05-16T09:09:10.816Z,5.50
2023-05-16T09:10:10.837Z,6.40
2023-05-16T09:11:10.815Z,5.70
2023-05-16T09:12:10.794Z,6.40
2023-05-16T09:13:10.776Z,3.70
2023-05-16T09:14:10.785Z,3.70
2023-05-16T09:15:10.763Z,4.20
2023-05-16T09:16:10.743Z,3.90
2023-05-16T09:17:12.540Z,4.10
2023-05-16T09:18:10.748Z,3.40
2023-05-16T09:19:10.760Z,5.70
2023-05-16T09:20:10.748Z,4.00
2023-05-16T09:21:10.685Z,6.10
2023-05-16T09:22:10.681Z,4.80
2023-05-16T09:23:10.661Z,4.10
2023-05-16T09:24:10.649Z,5.70
2023-05-16T09:25:18.437Z,6.60
2023-05-16T09:26:10.637Z,4.80
2023-05-16T09:27:10.619Z,7.80
2023-05-16T09:28:11.597Z,5.80
2023-05-16T09:29:10.587Z,7.90
2023-05-16T09:30:10.587Z,6.00
2023-05-16T09:31:10.639Z,5.60
2023-05-16T09:32:10.561Z,3.00
2023-05-16T09:33:10.570Z,5.80
2023-05-16T09:34:10.537Z,3.40
2023-05-16T09:35:10.529Z,5.10
2023-05-16T09:36:10.527Z,4.10
2023-05-16T09:37:10.496Z,6.40
2023-05-16T09:38:10.511Z,4.10
2023-05-16T09:39:10.475Z,6.50
2023-05-16T09:40:10.509Z,2.30
2023-05-16T09:41:10.462Z,5.10
2023-05-16T09:42:10.449Z,6.00
2023-05-16T09:43:10.450Z,4.20
2023-05-16T09:44:10.450Z,7.50
2023-05-16T09:45:10.425Z,3.90
2023-05-16T09:46:10.414Z,5.40
2023-05-16T09:47:10.408Z,3.50
2023-05-16T09:48:10.438Z,5.60
2023-05-16T09:49:10.369Z,4.20
2023-05-16T09:50:10.370Z,4.10
2023-05-16T09:51:10.345Z,4.50
2023-05-16T09:52:10.337Z,3.70
2023-05-16T09:53:10.341Z,3.40
2023-05-16T09:54:10.333Z,3.80
2023-05-16T09:55:10.311Z,4.40
2023-05-16T09:56:10.296Z,3.30
2023-05-16T09:57:10.279Z,4.10
2023-05-16T09:58:10.275Z,5.30
2023-05-16T09:59:10.267Z,3.80
2023-05-16T10:00:10.253Z,5.50
2023-05-16T10:01:10.230Z,4.40
2023-05-16T10:02:10.313Z,4.70
2023-05-16T10:03:10.326Z,3.10
2023-05-16T10:04:10.280Z,5.10
2023-05-16T10:05:10.188Z,3.10
2023-05-16T10:06:10.187Z,4.30
2023-05-16T10:07:10.167Z,4.50
2023-05-16T10:08:10.169Z,4.40
2023-05-16T10:09:10.158Z,4.10
2023-05-16T10:10:10.136Z,3.80
2023-05-16T10:11:10.158Z,3.20
2023-05-16T10:12:10.109Z,3.80
2023-05-16T10:13:10.115Z,5.30
2023-05-16T10:14:10.090Z,4.80
2023-05-16T10:15:10.090Z,5.40
2023-05-16T10:16:10.134Z,4.20
2023-05-16T10:17:10.092Z,4.40
2023-05-16T10:18:10.095Z,4.10
2023-05-16T10:19:10.092Z,3.10
2023-05-16T10:20:10.044Z,4.40
2023-05-16T10:21:11.579Z,3.60
2023-05-16T10:22:10.013Z,3.50
2023-05-16T10:23:10.032Z,2.40
2023-05-16T10:24:09.981Z,5.60
2023-05-16T10:25:09.979Z,3.60
2023-05-16T10:26:09.958Z,5.20
2023-05-16T10:27:09.961Z,2.70
2023-05-16T10:28:09.944Z,3.00
2023-05-16T10:29:09.935Z,4.80
2023-05-16T10:30:10.452Z,4.10
2023-05-16T10:31:09.902Z,4.10
2023-05-16T10:32:09.967Z,3.80
2023-05-16T10:33:09.913Z,3.20
2023-05-16T10:34:09.867Z,4.00
2023-05-16T10:35:09.879Z,5.00
2023-05-16T10:36:09.857Z,6.50
2023-05-16T10:37:09.851Z,6.60
2023-05-16T10:38:09.823Z,3.50
2023-05-16T10:39:09.824Z,3.70
2023-05-16T10:40:09.806Z,5.80
2023-05-16T10:41:09.820Z,2.70
2023-05-16T10:42:09.793Z,4.90
2023-05-16T10:43:09.771Z,4.40
2023-05-16T10:44:09.751Z,3.50
2023-05-16T10:45:09.756Z,3.10
2023-05-16T10:46:10.178Z,5.30
2023-05-16T10:47:09.725Z,2.30
2023-05-16T10:48:09.799Z,2.70
2023-05-16T10:49:09.703Z,2.70
2023-05-16T10:50:09.689Z,2.80
2023-05-16T10:51:09.691Z,4.50
2023-05-16T10:52:09.669Z,3.60
2023-05-16T10:53:09.664Z,4.90
2023-05-16T10:54:09.647Z,2.60
2023-05-16T10:55:09.646Z,2.90
2023-05-16T10:56:09.655Z,2.20
2023-05-16T10:57:09.612Z,2.90
2023-05-16T10:58:09.614Z,2.80
2023-05-16T10:59:09.591Z,2.30
2023-05-16T11:00:09.609Z,2.30
2023-05-16T11:01:09.628Z,1.40
2023-05-16T11:02:09.606Z,1.40
2023-05-16T11:03:09.719Z,1.80
2023-05-16T11:04:09.543Z,3.00
2023-05-16T11:05:09.555Z,3.30
2023-05-16T11:06:09.525Z,1.50
2023-05-16T11:07:09.522Z,2.00
2023-05-16T11:08:09.494Z,2.10
2023-05-16T11:09:09.487Z,1.90
2023-05-16T11:10:09.501Z,3.70
2023-05-16T11:11:09.461Z,1.80
2023-05-16T11:12:09.446Z,5.40
2023-05-16T11:13:09.439Z,5.90
2023-05-16T11:14:09.435Z,2.80
2023-05-16T11:15:09.419Z,3.50
2023-05-16T11:16:09.403Z,2.30
2023-05-16T11:17:09.464Z,3.70
2023-05-16T11:18:09.421Z,4.40
2023-05-16T11:19:09.395Z,5.40
2023-05-16T11:20:09.355Z,2.30
2023-05-16T11:21:09.353Z,2.70
2023-05-16T11:22:09.411Z,4.60
2023-05-16T11:23:09.331Z,2.20
2023-05-16T11:24:09.322Z,2.60
2023-05-16T11:25:09.319Z,3.50
2023-05-16T11:26:09.297Z,4.80
2023-05-16T11:27:09.285Z,4.00
2023-05-16T11:28:09.282Z,4.20
2023-05-16T11:29:09.277Z,5.70
2023-05-16T11:30:09.250Z,3.00
2023-05-16T11:31:09.283Z,2.20
2023-05-16T11:32:09.232Z,2.10
2023-05-16T11:33:09.302Z,1.50
2023-05-16T11:34:09.205Z,3.10
2023-05-16T11:35:09.600Z,3.80
2023-05-16T11:37:09.177Z,3.40
2023-05-16T11:38:09.169Z,2.10
2023-05-16T11:39:09.210Z,2.80
2023-05-16T11:40:09.138Z,4.10
2023-05-16T11:41:09.127Z,3.20
2023-05-16T11:42:09.126Z,3.30
2023-05-16T11:43:09.128Z,2.40
2023-05-16T11:44:09.119Z,3.70
2023-05-16T11:45:09.086Z,3.30
2023-05-16T11:46:09.097Z,3.30
2023-05-16T11:47:09.239Z,2.30
2023-05-16T11:48:09.082Z,1.90
2023-05-16T11:49:09.055Z,3.00
2023-05-16T11:50:09.030Z,4.10
2023-05-16T11:51:09.029Z,5.00
2023-05-16T11:52:09.016Z,2.50
2023-05-16T11:53:09.003Z,3.70
2023-05-16T11:54:08.979Z,3.20
2023-05-16T11:55:08.977Z,2.70
2023-05-16T11:56:08.973Z,3.50
2023-05-16T11:57:08.965Z,3.10
2023-05-16T11:58:08.955Z,3.70
2023-05-16T11:59:08.963Z,3.20
2023-05-16T12:00:08.924Z,3.30
2023-05-16T12:01:08.939Z,5.60
2023-05-16T12:02:08.909Z,5.20
2023-05-16T12:03:08.960Z,2.70
2023-05-16T12:04:09.108Z,3.30
2023-05-16T12:05:09.027Z,4.40
2023-05-16T12:06:08.878Z,2.60
2023-05-16T12:07:08.839Z,2.80
2023-05-16T12:08:08.830Z,4.10
2023-05-16T12:09:08.823Z,4.30
2023-05-16T12:10:08.867Z,2.90
2023-05-16T12:11:08.811Z,5.20
2023-05-16T12:12:08.788Z,2.90
2023-05-16T12:13:08.784Z,3.70
2023-05-16T12:14:08.766Z,6.20
2023-05-16T12:15:08.772Z,3.60
2023-05-16T12:16:08.784Z,2.90
2023-05-16T12:17:08.824Z,4.00
2023-05-16T12:18:08.797Z,3.90
2023-05-16T12:19:08.786Z,3.50
2023-05-16T12:20:08.705Z,2.60
2023-05-16T12:21:08.703Z,4.40
2023-05-16T12:22:08.679Z,3.30
2023-05-16T12:23:08.672Z,1.80
2023-05-16T12:24:08.655Z,2.00
2023-05-16T12:25:08.664Z,1.80
2023-05-16T12:26:08.639Z,2.40
2023-05-16T12:27:08.627Z,2.30
2023-05-16T12:28:08.612Z,2.30
2023-05-16T12:29:08.656Z,3.50
2023-05-16T12:30:08.603Z,3.50
2023-05-16T12:31:15.743Z,5.20
2023-05-16T12:32:08.589Z,2.10
2023-05-16T12:33:08.633Z,3.30
2023-05-16T12:34:08.555Z,2.00
2023-05-16T12:35:08.546Z,2.00
2023-05-16T12:36:08.667Z,3.00
2023-05-16T12:37:08.524Z,3.80
2023-05-16T12:38:08.507Z,4.20
2023-05-16T12:39:09.463Z,3.10
2023-05-16T12:40:08.484Z,2.00
2023-05-16T12:41:08.476Z,4.10
2023-05-16T12:42:08.462Z,2.60
2023-05-16T12:43:08.459Z,2.40
2023-05-16T12:44:08.448Z,3.90
2023-05-16T12:45:08.438Z,2.50
2023-05-16T12:46:08.531Z,2.40
2023-05-16T12:47:08.406Z,3.60
2023-05-16T12:48:08.426Z,2.60
2023-05-16T12:49:08.391Z,4.10
2023-05-16T12:50:08.379Z,2.30
2023-05-16T12:51:08.356Z,2.60
2023-05-16T12:52:08.349Z,4.00
2023-05-16T12:53:08.349Z,3.40
2023-05-16T12:55:08.309Z,1.30
2023-05-16T12:56:08.307Z,2.20
2023-05-16T12:57:08.296Z,1.80
2023-05-16T12:58:08.366Z,3.90
2023-05-16T12:59:08.273Z,2.20
2023-05-16T13:00:08.287Z,2.70
2023-05-16T13:01:08.301Z,2.30
2023-05-16T13:02:08.524Z,4.50
2023-05-16T13:03:08.431Z,3.30
2023-05-16T13:04:08.647Z,3.00
2023-05-16T13:05:08.202Z,4.30
2023-05-16T13:06:08.198Z,2.90
2023-05-16T13:07:08.227Z,5.20
2023-05-16T13:08:08.205Z,3.60
2023-05-16T13:09:08.172Z,3.50
2023-05-16T13:10:08.155Z,4.10
2023-05-16T13:11:08.147Z,3.60
2023-05-16T13:12:08.148Z,6.60